createdAt,value
2023-04-08T00:04:59.078Z,100968.59
2023-04-08T00:10:02.044Z,100972.36
2023-04-08T00:15:05.315Z,100977.09
2023-04-08T00:20:08.633Z,100977.55
2023-04-08T00:25:11.332Z,100984.70
2023-04-08T00:30:15.438Z,100985.11
2023-04-08T00:35:18.187Z,100984.98
2023-04-08T00:40:21.138Z,100984.85
2023-04-08T00:45:23.824Z,100987.20
2023-04-08T00:50:26.489Z,100994.08
2023-04-08T00:55:29.208Z,100995.91
2023-04-08T01:00:32.902Z,100997.00
2023-04-08T01:05:47.364Z,101002.63
2023-04-08T01:10:54.162Z,101005.08
2023-04-08T01:15:57.277Z,101003.50
2023-04-08T01:21:00.524Z,101008.20
2023-04-08T01:26:03.271Z,101008.16
2023-04-08T01:31:07.276Z,101014.89
2023-04-08T01:36:11.107Z,101014.86
2023-04-08T01:41:13.924Z,101019.10
2023-04-08T01:46:17.157Z,101022.91
2023-04-08T01:51:21.250Z,101026.30
2023-04-08T01:56:28.440Z,101024.76
2023-04-08T02:01:33.142Z,101026.37
2023-04-08T02:06:38.022Z,101033.18
2023-04-08T02:11:40.726Z,101037.95
2023-04-08T02:16:56.499Z,101044.90
2023-04-08T02:22:25.647Z,101038.98
2023-04-08T02:27:29.677Z,101043.83
2023-04-08T02:32:33.340Z,101051.07
2023-04-08T02:37:36.198Z,101051.95
2023-04-08T02:42:38.950Z,101057.58
2023-04-08T02:47:41.605Z,101062.50
2023-04-08T02:52:45.005Z,101063.87
2023-04-08T02:57:48.358Z,101069.70
2023-04-08T03:02:51.241Z,101072.45
2023-04-08T03:07:54.158Z,101076.75
2023-04-08T03:12:56.800Z,101080.02
2023-04-08T03:18:00.299Z,101082.30
2023-04-08T03:23:03.113Z,101077.17
2023-04-08T03:28:05.819Z,101083.89
2023-04-08T03:33:08.919Z,101086.92
2023-04-08T03:38:11.750Z,101089.98
2023-04-08T03:43:14.863Z,101091.40
2023-04-08T03:48:17.509Z,101097.09
2023-04-08T03:53:20.349Z,101101.79
2023-04-08T03:58:23.152Z,101110.00
2023-04-08T04:03:25.945Z,101115.21
2023-04-08T04:08:28.686Z,101116.85
2023-04-08T04:13:31.309Z,101122.63
2023-04-08T04:18:34.056Z,101129.45
2023-04-08T04:23:36.853Z,101132.02
2023-04-08T04:28:39.535Z,101134.94
2023-04-08T04:33:42.195Z,101142.02
2023-04-08T04:38:45.398Z,101149.59
2023-04-08T04:43:48.065Z,101151.58
2023-04-08T04:48:51.653Z,101158.09
2023-04-08T04:53:54.402Z,101162.15
2023-04-08T04:58:57.104Z,101166.36
2023-04-08T05:03:59.791Z,101167.64
2023-04-08T05:09:02.785Z,101168.52
2023-04-08T05:14:05.664Z,101172.23
2023-04-08T05:19:08.368Z,101174.95
2023-04-08T05:24:11.005Z,101173.08
2023-04-08T05:29:13.655Z,101183.09
2023-04-08T05:34:19.448Z,101182.37
2023-04-08T05:39:22.149Z,101185.80
2023-04-08T05:44:24.965Z,101189.52
2023-04-08T05:49:27.583Z,101187.02
2023-04-08T05:54:30.409Z,101186.70
2023-04-08T05:59:33.077Z,101194.84
2023-04-08T06:04:35.817Z,101194.35
2023-04-08T06:09:38.494Z,101191.83
2023-04-08T06:14:41.139Z,101194.84
2023-04-08T06:19:43.832Z,101202.96
2023-04-08T06:24:47.655Z,101210.16
2023-04-08T06:29:50.918Z,101216.86
2023-04-08T06:34:53.568Z,101221.87
2023-04-08T06:39:56.500Z,101225.64
2023-04-08T06:44:59.362Z,101237.23
2023-04-08T06:50:02.227Z,101235.23
2023-04-08T06:55:05.267Z,101243.08
2023-04-08T07:00:08.874Z,101251.45
2023-04-08T07:05:11.538Z,101252.66
2023-04-08T07:10:14.253Z,101257.48
2023-04-08T07:15:16.962Z,101261.27
2023-04-08T07:20:19.611Z,101266.89
2023-04-08T07:25:22.309Z,101272.54
2023-04-08T07:30:25.051Z,101281.83
2023-04-08T07:35:27.944Z,101286.17
2023-04-08T07:40:31.043Z,101289.09
2023-04-08T07:45:33.775Z,101287.94
2023-04-08T07:51:08.815Z,101288.93
2023-04-08T07:56:00.606Z,101286.81
2023-04-08T08:01:03.661Z,101287.48
2023-04-08T08:06:06.418Z,101289.52
2023-04-08T08:11:09.193Z,101284.18
2023-04-08T08:16:12.345Z,101284.31
2023-04-08T08:21:16.003Z,101286.55
2023-04-08T08:26:18.747Z,101290.41
2023-04-08T08:31:21.500Z,101289.92
2023-04-08T08:36:24.435Z,101284.36
2023-04-08T08:41:27.081Z,101282.02
2023-04-08T08:46:29.907Z,101278.01
2023-04-08T08:51:33.133Z,101281.20
2023-04-08T08:56:35.873Z,101276.66
2023-04-08T09:01:41.466Z,101281.48
2023-04-08T09:07:04.622Z,101282.16
2023-04-08T09:12:07.291Z,101280.89
2023-04-08T09:17:10.673Z,101278.13
2023-04-08T09:22:13.379Z,101271.77
2023-04-08T09:27:16.023Z,101272.52
2023-04-08T09:32:18.707Z,101273.52
2023-04-08T09:37:21.411Z,101269.86
2023-04-08T09:42:24.120Z,101272.79
2023-04-08T09:47:28.909Z,101270.21
2023-04-08T09:52:43.866Z,101268.47
2023-04-08T09:57:58.179Z,101268.75
2023-04-08T10:03:26.449Z,101274.39
2023-04-08T10:08:31.595Z,101279.66
2023-04-08T10:13:34.811Z,101277.61
2023-04-08T10:18:38.305Z,101270.76
2023-04-08T10:24:01.524Z,101272.96
2023-04-08T10:29:19.445Z,101271.95
2023-04-08T10:34:27.603Z,101269.02
2023-04-08T10:39:30.857Z,101263.60
2023-04-08T10:44:33.520Z,101266.02
2023-04-08T10:49:37.088Z,101261.36
2023-04-08T10:54:46.838Z,101261.66
2023-04-08T10:59:49.495Z,101260.73
2023-04-08T11:04:54.364Z,101260.58
2023-04-08T11:09:57.149Z,101260.04
2023-04-08T11:14:59.901Z,101258.63
2023-04-08T11:20:06.268Z,101255.56
2023-04-08T11:25:10.308Z,101254.00
2023-04-08T11:30:13.339Z,101245.34
2023-04-08T11:35:17.013Z,101244.39
2023-04-08T11:40:21.997Z,101244.35
2023-04-08T11:45:26.194Z,101247.77
2023-04-08T11:50:30.081Z,101246.14
2023-04-08T11:55:34.048Z,101251.58
2023-04-08T12:00:37.444Z,101245.34
2023-04-08T12:05:40.739Z,101247.23
2023-04-08T12:10:43.445Z,101243.88
2023-04-08T12:15:46.139Z,101241.92
2023-04-08T12:20:48.798Z,101241.23
2023-04-08T12:25:51.940Z,101235.69
2023-04-08T12:30:54.602Z,101230.85
2023-04-08T12:36:00.847Z,101227.77
2023-04-08T12:41:03.654Z,101221.79
2023-04-08T12:46:06.452Z,101218.02
2023-04-08T12:51:10.428Z,101211.95
2023-04-08T12:56:13.359Z,101214.06
2023-04-08T13:01:16.187Z,101213.95
2023-04-08T13:06:18.854Z,101206.78
2023-04-08T13:11:21.516Z,101197.91
2023-04-08T13:16:24.250Z,101195.36
2023-04-08T13:21:27.414Z,101189.59
2023-04-08T13:26:30.086Z,101192.89
2023-04-08T13:31:32.908Z,101186.88
2023-04-08T13:36:35.930Z,101180.09
2023-04-08T13:41:38.712Z,101179.55
2023-04-08T13:46:42.347Z,101181.92
2023-04-08T13:51:45.039Z,101180.05
2023-04-08T13:56:47.731Z,101176.04
2023-04-08T14:01:54.181Z,101171.81
2023-04-08T14:06:58.161Z,101171.61
2023-04-08T14:12:00.911Z,101168.48
2023-04-08T14:17:04.301Z,101169.59
2023-04-08T14:22:07.245Z,101156.56
2023-04-08T14:27:10.017Z,101152.94
2023-04-08T14:32:13.258Z,101146.03
2023-04-08T14:37:17.840Z,101140.62
2023-04-08T14:42:21.013Z,101138.56
2023-04-08T14:47:24.038Z,101136.88
2023-04-08T14:52:26.734Z,101126.98
2023-04-08T14:57:29.367Z,101122.57
2023-04-08T15:02:32.162Z,101123.30
2023-04-08T15:07:35.047Z,101114.08
2023-04-08T15:12:37.915Z,101111.90
2023-04-08T15:17:40.740Z,101107.86
2023-04-08T15:22:43.383Z,101104.27
2023-04-08T15:27:46.659Z,101104.70
2023-04-08T15:32:49.367Z,101107.94
2023-04-08T15:37:52.056Z,101107.54
2023-04-08T15:42:54.899Z,101106.33
2023-04-08T15:47:57.702Z,101107.42
2023-04-08T15:53:00.429Z,101106.66
2023-04-08T15:58:03.098Z,101111.45
2023-04-08T16:03:08.437Z,101115.77
2023-04-08T16:08:11.669Z,101114.79
2023-04-08T16:13:14.362Z,101116.45
2023-04-08T16:18:17.241Z,101114.83
2023-04-08T16:23:20.258Z,101114.75
2023-04-08T16:28:22.929Z,101120.52
2023-04-08T16:33:29.915Z,101126.98
2023-04-08T16:38:33.104Z,101130.77
2023-04-08T16:43:37.156Z,101141.30
2023-04-08T16:48:41.170Z,101139.05
2023-04-08T16:53:43.801Z,101146.21
2023-04-08T16:58:46.453Z,101151.77
2023-04-08T17:03:50.220Z,101158.95
2023-04-08T17:08:53.276Z,101165.60
2023-04-08T17:13:56.144Z,101170.05
2023-04-08T17:18:58.808Z,101172.20
2023-04-08T17:24:01.644Z,101177.58
2023-04-08T17:29:04.334Z,101179.30
2023-04-08T17:34:07.864Z,101184.83
2023-04-08T17:39:10.985Z,101187.90
2023-04-08T17:44:13.638Z,101193.40
2023-04-08T17:49:16.715Z,101200.21
2023-04-08T17:54:19.393Z,101208.41
2023-04-08T17:59:22.044Z,101218.63
2023-04-08T18:04:24.743Z,101222.10
2023-04-08T18:09:27.454Z,101229.27
2023-04-08T18:14:30.189Z,101233.34
2023-04-08T18:19:32.945Z,101240.58
2023-04-08T18:24:35.771Z,101235.84
2023-04-08T18:29:38.714Z,101241.90
2023-04-08T18:34:41.690Z,101244.59
2023-04-08T18:39:44.370Z,101245.42
2023-04-08T18:44:47.112Z,101251.70
2023-04-08T18:49:49.765Z,101250.40
2023-04-08T18:54:52.679Z,101258.27
2023-04-08T18:59:55.397Z,101261.70
2023-04-08T19:04:58.449Z,101260.81
2023-04-08T19:10:01.224Z,101264.17
2023-04-08T19:15:04.665Z,101267.11
2023-04-08T19:20:08.497Z,101266.77
2023-04-08T19:25:11.261Z,101267.42
2023-04-08T19:30:13.980Z,101265.64
2023-04-08T19:35:16.698Z,101265.38
2023-04-08T19:40:19.832Z,101265.34
2023-04-08T19:45:22.539Z,101267.26
2023-04-08T19:50:25.531Z,101270.74
2023-04-08T19:55:28.283Z,101269.98
2023-04-08T20:00:31.281Z,101270.90
2023-04-08T20:05:34.044Z,101268.54
2023-04-08T20:10:36.827Z,101270.89
2023-04-08T20:15:39.581Z,101271.56
2023-04-08T20:20:42.983Z,101273.13
2023-04-08T20:25:45.732Z,101277.23
2023-04-08T20:30:48.387Z,101277.26
2023-04-08T20:35:53.347Z,101274.27
2023-04-08T20:40:56.160Z,101275.34
2023-04-08T20:45:58.926Z,101273.14
2023-04-08T20:51:01.632Z,101277.98
2023-04-08T20:56:04.735Z,101278.11
2023-04-08T21:01:07.853Z,101280.17
2023-04-08T21:06:20.870Z,101280.44
2023-04-08T21:11:23.654Z,101279.34
2023-04-08T21:16:26.413Z,101275.77
2023-04-08T21:21:29.687Z,101279.03
2023-04-08T21:26:32.464Z,101274.79
2023-04-08T21:31:35.445Z,101274.73
2023-04-08T21:36:38.148Z,101275.86
2023-04-08T21:41:40.839Z,101271.63
2023-04-08T21:46:43.542Z,101270.67
2023-04-08T21:51:46.359Z,101270.26
2023-04-08T21:56:49.053Z,101266.60
2023-04-08T22:01:51.942Z,101264.64
2023-04-08T22:06:55.113Z,101261.56
2023-04-08T22:11:57.910Z,101252.51
2023-04-08T22:17:00.649Z,101251.09
2023-04-08T22:22:03.426Z,101248.66
2023-04-08T22:27:06.978Z,101248.64
2023-04-08T22:32:09.650Z,101250.17
2023-04-08T22:37:12.372Z,101245.48
2023-04-08T22:42:15.050Z,101248.46
2023-04-08T22:47:18.262Z,101246.61
2023-04-08T22:52:21.143Z,101252.33
2023-04-08T22:57:23.817Z,101252.27
2023-04-08T23:02:26.524Z,101249.96
2023-04-08T23:07:29.305Z,101248.89
2023-04-08T23:12:32.028Z,101252.33
2023-04-08T23:17:34.768Z,101245.79
2023-04-08T23:22:37.479Z,101247.34
2023-04-08T23:27:40.304Z,101252.90
2023-04-08T23:32:43.021Z,101254.84
2023-04-08T23:37:46.353Z,101250.08
2023-04-08T23:42:49.014Z,101248.33
2023-04-08T23:47:51.815Z,101244.31
2023-04-08T23:52:54.467Z,101242.39
2023-04-08T23:57:57.134Z,101241.08
